KEUG/EUG METAR and TAF weather

Enter ICAO airport designator
Station Type Date Time Source
KEUG METAR 2019/12/08 11:25 UTC NOAA

KEUG 081125Z AUTO 00000KT 1 1/2SM BR SCT004 OVC010 08/07 A2993 RMK AO2 VIS 3/4 RNW 34 CIG 004 RNW 34 T00830072


Station Type Date Time Source
KEUG Decoded METAR 2019/12/08 11:25 UTC NOAA

MAHLON SWEET FIELD, OR, United States (KEUG) 44-08N 123-13W 114M
Dec 08, 2019 - 06:25 AM EST / 2019.12.08 1125 UTC
Wind: Calm:0
Visibility: 1 1/2 mile(s):0
Sky conditions: overcast
Weather: mist
Temperature: 46.9 F (8.3 C)
Dew Point: 45.0 F (7.2 C)
Relative Humidity: 92%
Pressure (altimeter): 29.93 in. Hg (1013 hPa)
ob: KEUG 081125Z AUTO 00000KT 1 1/2SM BR SCT004 OVC010 08/07 A2993 RMK AO2 VIS 3/4 RNW 34 CIG 004 RNW 34 T00830072
cycle: 11

Station Type Date Time Source
KEUG TAF 2019/12/08 07:58 UTC NOAA

TAF
AMD KEUG 080656Z 0807/0906 00000KT 1/2SM FG OVC002
FM082000 VRB04KT 6SM BR OVC007
FM082100 00000KT 6SM BR OVC015

Example: see airport list